Time;durP1;ratioP1;P1;durP2;ratioP2;P2;SDS_P1;SDS_P2;PMS_P1;PMS_P2;Temp;Humidity;BMP_temperature;BMP_pressure;BME280_temperature;BME280_humidity;BME280_pressure;Samples;Min_cycle;Max_cycle;Signal;HPM_P1;HPM_P2
2021/07/19 00:01:10;;;;;;;4.70;3.53;;;;;;;;;;466531;253;28069;-70
2021/07/19 00:03:12;;;;;;;5.00;4.50;;;;;;;;;;466497;253;27668;-71
2021/07/19 00:05:14;;;;;;;4.53;4.13;;;;;;;;;;466512;253;28063;-70
2021/07/19 00:07:16;;;;;;;7.30;4.53;;;;;;;;;;466512;253;27572;-70
2021/07/19 00:09:18;;;;;;;4.10;3.70;;;;;;;;;;466516;252;28072;-72
2021/07/19 00:11:20;;;;;;;4.63;3.90;;;;;;;;;;466480;252;27581;-70
2021/07/19 00:13:24;;;;;;;5.50;4.30;;;;;;;;;;466524;255;28211;-70
2021/07/19 00:15:24;;;;;;;5.10;4.70;;;;;;;;;;466485;253;27603;-71
2021/07/19 00:17:27;;;;;;;4.53;3.93;;;;;;;;;;466546;253;28027;-69
2021/07/19 00:19:29;;;;;;;8.07;5.37;;;;;;;;;;466524;252;27556;-70
2021/07/19 00:21:31;;;;;;;4.87;4.47;;;;;;;;;;466512;253;27991;-70
2021/07/19 00:23:33;;;;;;;5.97;4.80;;;;;;;;;;466528;253;27548;-70
2021/07/19 00:25:35;;;;;;;5.20;4.33;;;;;;;;;;466532;253;28066;-70
2021/07/19 00:27:37;;;;;;;9.53;4.70;;;;;;;;;;466543;253;27617;-70
2021/07/19 00:29:39;;;;;;;5.97;4.90;;;;;;;;;;466541;253;28107;-70
2021/07/19 00:31:41;;;;;;;5.20;4.70;;;;;;;;;;466528;253;27574;-70
2021/07/19 00:33:44;;;;;;;8.00;4.60;;;;;;;;;;466544;252;27968;-71
2021/07/19 00:35:46;;;;;;;5.90;5.30;;;;;;;;;;466557;253;27551;-71
2021/07/19 00:37:48;;;;;;;5.57;4.97;;;;;;;;;;466570;253;28795;-72
2021/07/19 00:39:50;;;;;;;6.03;5.00;;;;;;;;;;466557;253;27575;-72
2021/07/19 00:41:52;;;;;;;5.33;4.83;;;;;;;;;;466558;253;28302;-69
2021/07/19 00:43:54;;;;;;;8.03;4.53;;;;;;;;;;466562;253;27644;-71
2021/07/19 00:45:56;;;;;;;5.90;4.70;;;;;;;;;;466556;253;28058;-72
2021/07/19 00:47:58;;;;;;;4.60;4.20;;;;;;;;;;466541;253;27575;-72
2021/07/19 00:50:00;;;;;;;4.60;4.30;;;;;;;;;;466538;253;28131;-69
2021/07/19 00:52:02;;;;;;;5.07;4.57;;;;;;;;;;466514;253;27588;-70
2021/07/19 00:54:05;;;;;;;4.40;4.00;;;;;;;;;;466530;253;28151;-69
2021/07/19 00:56:07;;;;;;;5.67;4.13;;;;;;;;;;466542;252;27588;-69
2021/07/19 00:58:09;;;;;;;4.50;4.10;;;;;;;;;;466526;253;28154;-69
2021/07/19 01:00:11;;;;;;;5.50;4.37;;;;;;;;;;466544;253;27576;-70
2021/07/19 01:02:13;;;;;;;4.63;4.23;;;;;;;;;;466346;253;28118;-70
2021/07/19 01:04:15;;;;;;;4.40;4.00;;;;;;;;;;466547;253;27578;-69
2021/07/19 01:06:18;;;;;;;3.90;3.60;;;;;;;;;;466517;253;28132;-70
2021/07/19 01:08:19;;;;;;;3.80;3.50;;;;;;;;;;466478;253;27573;-70
2021/07/19 01:10:22;;;;;;;4.63;4.23;;;;;;;;;;466451;255;27981;-70
2021/07/19 01:12:24;;;;;;;4.13;3.73;;;;;;;;;;466545;253;27630;-69
2021/07/19 01:14:26;;;;;;;4.13;3.83;;;;;;;;;;466524;253;28186;-69
2021/07/19 01:16:28;;;;;;;4.90;3.80;;;;;;;;;;466536;253;27580;-70
2021/07/19 01:18:30;;;;;;;3.87;3.57;;;;;;;;;;466534;253;28009;-69
2021/07/19 01:20:32;;;;;;;4.00;3.70;;;;;;;;;;466517;253;27547;-69
2021/07/19 01:22:34;;;;;;;3.80;3.50;;;;;;;;;;466529;253;28107;-69
2021/07/19 01:24:36;;;;;;;3.90;3.60;;;;;;;;;;466529;253;27636;-69
2021/07/19 01:26:38;;;;;;;3.63;3.30;;;;;;;;;;466538;253;28084;-71
2021/07/19 01:28:41;;;;;;;5.67;3.77;;;;;;;;;;466521;253;27561;-73
2021/07/19 01:30:43;;;;;;;4.23;3.60;;;;;;;;;;466528;252;28019;-70
2021/07/19 01:32:45;;;;;;;3.77;3.47;;;;;;;;;;466518;253;27656;-72
2021/07/19 01:34:47;;;;;;;3.60;3.30;;;;;;;;;;466497;253;28095;-71
2021/07/19 01:36:49;;;;;;;3.73;3.43;;;;;;;;;;466533;253;27531;-71
2021/07/19 01:38:51;;;;;;;3.40;3.10;;;;;;;;;;466538;253;28178;-71
2021/07/19 01:40:53;;;;;;;3.67;3.37;;;;;;;;;;466529;253;27600;-69
2021/07/19 01:42:55;;;;;;;3.43;3.20;;;;;;;;;;466524;253;28007;-69
2021/07/19 01:44:57;;;;;;;3.43;3.13;;;;;;;;;;466532;253;27638;-69
2021/07/19 01:47:00;;;;;;;3.53;3.23;;;;;;;;;;466487;253;28097;-69
2021/07/19 01:49:02;;;;;;;3.23;3.03;;;;;;;;;;466523;252;27578;-69
2021/07/19 01:51:04;;;;;;;3.53;3.23;;;;;;;;;;466517;253;28053;-69
2021/07/19 01:53:06;;;;;;;3.23;3.03;;;;;;;;;;466491;253;27649;-69
2021/07/19 01:55:08;;;;;;;3.53;3.23;;;;;;;;;;466470;253;28087;-69
2021/07/19 01:57:10;;;;;;;3.70;3.40;;;;;;;;;;466537;253;27582;-69
2021/07/19 01:59:12;;;;;;;3.50;3.20;;;;;;;;;;466528;253;28169;-69
2021/07/19 02:01:14;;;;;;;3.07;2.87;;;;;;;;;;466545;253;27592;-70
2021/07/19 02:03:16;;;;;;;3.00;2.80;;;;;;;;;;466510;253;28011;-71
2021/07/19 02:05:19;;;;;;;3.13;2.93;;;;;;;;;;466494;252;27554;-71
2021/07/19 02:07:21;;;;;;;3.70;3.40;;;;;;;;;;466523;255;28011;-72
2021/07/19 02:09:23;;;;;;;3.50;3.20;;;;;;;;;;466519;253;27544;-71
2021/07/19 02:11:25;;;;;;;3.47;3.23;;;;;;;;;;466510;253;28170;-70
2021/07/19 02:13:27;;;;;;;4.70;3.00;;;;;;;;;;466532;253;27541;-71
2021/07/19 02:15:29;;;;;;;3.67;3.37;;;;;;;;;;466512;253;28000;-71
2021/07/19 02:17:31;;;;;;;4.57;2.97;;;;;;;;;;466518;253;27552;-69
2021/07/19 02:19:34;;;;;;;3.27;3.00;;;;;;;;;;466507;253;28026;-69
2021/07/19 02:21:36;;;;;;;3.67;3.37;;;;;;;;;;466524;253;27655;-70
2021/07/19 02:23:38;;;;;;;3.47;3.17;;;;;;;;;;466528;253;28127;-70
2021/07/19 02:25:40;;;;;;;4.13;3.83;;;;;;;;;;466532;253;27653;-70
2021/07/19 02:27:42;;;;;;;3.50;3.20;;;;;;;;;;466515;253;28046;-69
2021/07/19 02:29:44;;;;;;;3.17;2.97;;;;;;;;;;466546;252;27545;-70
2021/07/19 02:31:46;;;;;;;3.40;3.10;;;;;;;;;;466533;253;28835;-70
2021/07/19 02:33:48;;;;;;;3.20;3.00;;;;;;;;;;466509;253;27580;-72
2021/07/19 02:35:50;;;;;;;3.43;3.23;;;;;;;;;;466552;253;28133;-70
2021/07/19 02:37:52;;;;;;;3.90;3.60;;;;;;;;;;466552;253;27698;-69
2021/07/19 02:39:55;;;;;;;3.23;3.03;;;;;;;;;;466559;252;28074;-69
2021/07/19 02:41:57;;;;;;;3.53;3.23;;;;;;;;;;466493;252;27675;-72
2021/07/19 02:43:59;;;;;;;3.97;3.57;;;;;;;;;;466549;255;28076;-72
2021/07/19 02:46:01;;;;;;;3.57;3.27;;;;;;;;;;466512;253;27600;-69
2021/07/19 02:48:03;;;;;;;3.23;3.00;;;;;;;;;;466436;253;28129;-70
2021/07/19 02:50:05;;;;;;;3.10;2.90;;;;;;;;;;466503;253;27587;-70
2021/07/19 02:52:07;;;;;;;3.37;3.17;;;;;;;;;;466549;253;28210;-71
2021/07/19 02:54:09;;;;;;;3.97;3.67;;;;;;;;;;466526;253;27692;-71
2021/07/19 02:56:11;;;;;;;3.57;3.27;;;;;;;;;;466530;253;28064;-71
2021/07/19 02:58:14;;;;;;;3.37;3.17;;;;;;;;;;466461;253;27574;-71
2021/07/19 03:00:16;;;;;;;3.27;2.97;;;;;;;;;;466523;253;28076;-69
2021/07/19 03:02:18;;;;;;;2.87;2.60;;;;;;;;;;466496;253;27578;-71
2021/07/19 03:04:20;;;;;;;3.93;3.63;;;;;;;;;;466506;253;28048;-71
2021/07/19 03:06:22;;;;;;;3.60;3.30;;;;;;;;;;466514;253;28004;-70
2021/07/19 03:08:24;;;;;;;3.00;2.80;;;;;;;;;;466504;253;27549;-72
2021/07/19 03:10:26;;;;;;;3.60;3.30;;;;;;;;;;466528;253;28111;-70
2021/07/19 03:12:28;;;;;;;3.87;3.47;;;;;;;;;;466522;253;27545;-69
2021/07/19 03:14:31;;;;;;;3.50;3.20;;;;;;;;;;466232;253;28402;-69
2021/07/19 03:16:33;;;;;;;3.93;3.63;;;;;;;;;;466516;253;27568;-69
2021/07/19 03:18:35;;;;;;;4.03;3.73;;;;;;;;;;466464;253;28138;-69
2021/07/19 03:20:37;;;;;;;3.30;3.10;;;;;;;;;;466526;252;27572;-69
2021/07/19 03:22:39;;;;;;;3.60;3.30;;;;;;;;;;466472;253;28021;-69
2021/07/19 03:24:41;;;;;;;7.03;3.30;;;;;;;;;;466501;252;27569;-69
2021/07/19 03:26:43;;;;;;;3.90;3.60;;;;;;;;;;466354;253;28113;-69
2021/07/19 03:28:45;;;;;;;3.87;3.57;;;;;;;;;;466523;253;27593;-69
2021/07/19 03:30:48;;;;;;;3.50;3.20;;;;;;;;;;466515;253;28017;-71
2021/07/19 03:32:50;;;;;;;4.03;3.07;;;;;;;;;;466494;253;27612;-69
2021/07/19 03:34:52;;;;;;;3.67;3.37;;;;;;;;;;466518;253;28010;-70
2021/07/19 03:36:54;;;;;;;3.47;3.17;;;;;;;;;;466533;253;27635;-69
2021/07/19 03:38:56;;;;;;;5.23;3.37;;;;;;;;;;466519;253;27621;-70
2021/07/19 03:40:58;;;;;;;3.90;3.60;;;;;;;;;;466520;253;27603;-70
2021/07/19 03:43:00;;;;;;;3.80;3.50;;;;;;;;;;466510;253;27570;-70
2021/07/19 03:45:02;;;;;;;3.57;3.27;;;;;;;;;;466512;253;27676;-69
2021/07/19 03:47:04;;;;;;;4.30;3.70;;;;;;;;;;466523;253;27682;-70
2021/07/19 03:49:07;;;;;;;3.20;3.00;;;;;;;;;;466528;252;27679;-70
2021/07/19 03:51:09;;;;;;;3.60;3.30;;;;;;;;;;466524;253;27589;-70
2021/07/19 03:53:11;;;;;;;3.57;3.37;;;;;;;;;;466526;253;27587;-70
2021/07/19 03:55:14;;;;;;;3.03;2.83;;;;;;;;;;466546;253;27582;-71
2021/07/19 03:57:15;;;;;;;3.30;3.10;;;;;;;;;;466507;255;27680;-69
2021/07/19 03:59:17;;;;;;;3.00;2.80;;;;;;;;;;466541;253;27583;-69
2021/07/19 04:01:19;;;;;;;3.80;3.40;;;;;;;;;;466556;253;27583;-69
2021/07/19 04:03:26;;;;;;;4.40;3.57;;;;;;;;;;466560;253;27604;-69
2021/07/19 04:05:27;;;;;;;3.60;3.30;;;;;;;;;;466476;253;27682;-69
2021/07/19 04:07:28;;;;;;;3.40;3.10;;;;;;;;;;466484;253;27533;-69
2021/07/19 04:09:30;;;;;;;3.23;2.70;;;;;;;;;;466527;253;27619;-69
2021/07/19 04:11:33;;;;;;;3.33;3.03;;;;;;;;;;466408;253;27572;-72
2021/07/19 04:13:35;;;;;;;3.33;3.13;;;;;;;;;;466547;253;27911;-71
2021/07/19 04:15:39;;;;;;;3.67;3.30;;;;;;;;;;466539;253;27668;-71
2021/07/19 04:17:39;;;;;;;3.60;3.40;;;;;;;;;;466418;255;27559;-71
2021/07/19 04:19:43;;;;;;;4.10;3.70;;;;;;;;;;466563;253;27671;-71
2021/07/19 04:21:43;;;;;;;4.03;3.73;;;;;;;;;;466442;255;27569;-71
2021/07/19 04:23:45;;;;;;;3.73;3.43;;;;;;;;;;466534;253;27707;-71
2021/07/19 04:25:47;;;;;;;3.70;3.43;;;;;;;;;;466539;253;27596;-71
2021/07/19 04:27:49;;;;;;;3.67;3.37;;;;;;;;;;466537;253;27572;-71
2021/07/19 04:29:52;;;;;;;4.47;4.07;;;;;;;;;;466512;253;27753;-71
2021/07/19 04:31:54;;;;;;;4.27;3.97;;;;;;;;;;466520;253;27639;-72
2021/07/19 04:33:56;;;;;;;4.10;3.80;;;;;;;;;;466545;253;27582;-69
2021/07/19 04:35:58;;;;;;;4.70;4.20;;;;;;;;;;466548;253;27568;-69
2021/07/19 04:38:00;;;;;;;4.17;3.87;;;;;;;;;;466549;253;27687;-69
2021/07/19 04:40:02;;;;;;;7.17;4.10;;;;;;;;;;466542;253;27621;-69
2021/07/19 04:42:04;;;;;;;4.23;3.93;;;;;;;;;;466557;253;27558;-69
2021/07/19 04:44:06;;;;;;;4.00;3.70;;;;;;;;;;466539;253;27604;-71
2021/07/19 04:46:09;;;;;;;4.33;4.03;;;;;;;;;;466536;253;27540;-70
2021/07/19 04:48:11;;;;;;;3.90;3.60;;;;;;;;;;466523;253;27591;-70
2021/07/19 04:50:13;;;;;;;4.60;4.27;;;;;;;;;;466539;253;27543;-71
2021/07/19 04:52:15;;;;;;;4.00;3.70;;;;;;;;;;466527;253;27540;-69
2021/07/19 04:54:17;;;;;;;4.10;3.80;;;;;;;;;;466534;253;27553;-70
2021/07/19 04:56:19;;;;;;;3.67;3.40;;;;;;;;;;466543;253;27671;-70
2021/07/19 04:58:21;;;;;;;3.63;3.40;;;;;;;;;;466530;253;27547;-70
2021/07/19 05:00:23;;;;;;;3.87;3.57;;;;;;;;;;466541;253;27555;-70
2021/07/19 05:02:25;;;;;;;4.40;4.00;;;;;;;;;;466541;253;27588;-70
2021/07/19 05:04:28;;;;;;;3.83;3.60;;;;;;;;;;466522;253;27545;-69
2021/07/19 05:06:30;;;;;;;3.90;3.60;;;;;;;;;;466554;253;27632;-71
2021/07/19 05:08:32;;;;;;;3.70;3.40;;;;;;;;;;466547;253;27588;-69
2021/07/19 05:10:34;;;;;;;4.10;3.80;;;;;;;;;;466543;253;27615;-69
2021/07/19 05:12:36;;;;;;;4.00;3.70;;;;;;;;;;466524;253;27757;-70
2021/07/19 05:14:38;;;;;;;3.20;2.93;;;;;;;;;;466511;252;27578;-72
2021/07/19 05:16:40;;;;;;;4.17;3.77;;;;;;;;;;466527;253;27571;-70
2021/07/19 05:18:42;;;;;;;7.07;3.43;;;;;;;;;;466529;253;27672;-70
2021/07/19 05:20:44;;;;;;;3.90;3.50;;;;;;;;;;466527;253;27585;-71
2021/07/19 05:22:47;;;;;;;3.90;3.60;;;;;;;;;;466533;253;27579;-70
2021/07/19 05:24:49;;;;;;;3.70;3.47;;;;;;;;;;466523;253;27572;-71
2021/07/19 05:26:51;;;;;;;3.77;3.47;;;;;;;;;;466530;253;27664;-72
2021/07/19 05:28:56;;;;;;;3.90;3.60;;;;;;;;;;466474;253;27572;-71
2021/07/19 05:30:55;;;;;;;4.17;3.77;;;;;;;;;;466391;255;27597;-71
2021/07/19 05:32:57;;;;;;;4.03;3.73;;;;;;;;;;466510;253;27690;-71
2021/07/19 05:34:59;;;;;;;3.90;3.60;;;;;;;;;;466528;253;27584;-69
2021/07/19 05:37:01;;;;;;;3.97;3.57;;;;;;;;;;466525;253;27631;-70
2021/07/19 05:39:03;;;;;;;4.20;3.90;;;;;;;;;;466500;253;27583;-71
2021/07/19 05:41:07;;;;;;;4.23;3.87;;;;;;;;;;466472;253;27664;-71
2021/07/19 05:43:08;;;;;;;5.13;4.00;;;;;;;;;;466415;255;27595;-71
2021/07/19 05:45:10;;;;;;;6.83;3.70;;;;;;;;;;466495;252;27544;-72
2021/07/19 05:47:12;;;;;;;4.37;4.00;;;;;;;;;;466521;253;27559;-71
2021/07/19 05:49:14;;;;;;;4.40;4.00;;;;;;;;;;466506;253;27557;-71
2021/07/19 05:51:16;;;;;;;4.03;3.73;;;;;;;;;;466280;253;27585;-71
2021/07/19 05:53:18;;;;;;;3.50;3.30;;;;;;;;;;466482;253;27676;-71
2021/07/19 05:55:20;;;;;;;3.90;3.60;;;;;;;;;;466477;253;27531;-72
2021/07/19 05:57:22;;;;;;;4.30;4.00;;;;;;;;;;466545;253;27539;-70
2021/07/19 05:59:25;;;;;;;3.77;3.47;;;;;;;;;;466523;253;27540;-71
2021/07/19 06:01:27;;;;;;;4.00;3.70;;;;;;;;;;466546;253;27620;-70
2021/07/19 06:03:29;;;;;;;3.90;3.60;;;;;;;;;;466522;253;27564;-71
2021/07/19 06:05:31;;;;;;;4.80;3.50;;;;;;;;;;466529;253;27596;-71
2021/07/19 06:07:33;;;;;;;3.83;3.63;;;;;;;;;;466503;253;27587;-71
2021/07/19 06:09:35;;;;;;;4.10;3.80;;;;;;;;;;466535;253;27672;-71
2021/07/19 06:11:39;;;;;;;4.30;3.90;;;;;;;;;;466522;253;27571;-72
2021/07/19 06:13:39;;;;;;;3.77;3.47;;;;;;;;;;466404;255;27601;-71
2021/07/19 06:15:42;;;;;;;4.70;4.30;;;;;;;;;;466533;252;27621;-71
2021/07/19 06:17:44;;;;;;;5.73;5.23;;;;;;;;;;466539;253;27572;-71
2021/07/19 06:19:46;;;;;;;6.70;5.90;;;;;;;;;;466518;253;27584;-71
2021/07/19 06:21:48;;;;;;;7.27;6.60;;;;;;;;;;466528;253;27575;-69
2021/07/19 06:23:50;;;;;;;5.90;5.40;;;;;;;;;;466532;253;27673;-71
2021/07/19 06:25:52;;;;;;;5.70;5.20;;;;;;;;;;466534;253;27581;-70
2021/07/19 06:27:54;;;;;;;6.00;5.50;;;;;;;;;;466512;253;27568;-69
2021/07/19 06:29:56;;;;;;;6.47;5.87;;;;;;;;;;466518;253;27595;-69
2021/07/19 06:32:00;;;;;;;6.87;6.20;;;;;;;;;;466507;253;27593;-70
2021/07/19 06:34:01;;;;;;;7.03;6.33;;;;;;;;;;466413;255;27552;-69
2021/07/19 06:36:03;;;;;;;6.90;6.20;;;;;;;;;;466538;253;27555;-69
2021/07/19 06:38:05;;;;;;;7.73;5.50;;;;;;;;;;466532;253;27714;-71
2021/07/19 06:40:07;;;;;;;6.70;5.37;;;;;;;;;;466561;253;27623;-71
2021/07/19 06:42:09;;;;;;;6.07;5.50;;;;;;;;;;466361;253;27648;-71
2021/07/19 06:44:11;;;;;;;6.33;5.73;;;;;;;;;;466122;253;27544;-71
2021/07/19 06:46:13;;;;;;;5.80;5.30;;;;;;;;;;466238;253;27654;-70
2021/07/19 06:48:15;;;;;;;5.57;5.03;;;;;;;;;;466490;253;27558;-69
2021/07/19 06:50:17;;;;;;;6.43;5.80;;;;;;;;;;466502;253;27540;-70
2021/07/19 06:52:20;;;;;;;6.10;5.50;;;;;;;;;;466548;253;27541;-71
2021/07/19 06:54:22;;;;;;;6.93;6.03;;;;;;;;;;466556;253;27643;-71
2021/07/19 06:56:25;;;;;;;5.70;5.10;;;;;;;;;;466561;253;27539;-70
2021/07/19 06:58:26;;;;;;;5.80;5.30;;;;;;;;;;466474;253;27563;-69
2021/07/19 07:00:28;;;;;;;10.63;5.50;;;;;;;;;;466520;253;27532;-71
2021/07/19 07:02:30;;;;;;;7.93;5.70;;;;;;;;;;466537;253;27571;-70
2021/07/19 07:04:32;;;;;;;5.70;5.20;;;;;;;;;;466522;253;27576;-70
2021/07/19 07:06:34;;;;;;;9.97;5.77;;;;;;;;;;466542;253;27611;-70
2021/07/19 07:08:36;;;;;;;6.00;5.40;;;;;;;;;;466543;253;27703;-70
2021/07/19 07:10:39;;;;;;;8.60;6.20;;;;;;;;;;466528;253;27583;-71
2021/07/19 07:12:43;;;;;;;9.00;6.57;;;;;;;;;;466461;255;27711;-71
2021/07/19 07:14:43;;;;;;;11.07;6.90;;;;;;;;;;472352;239;27566;-69
2021/07/19 07:16:45;;;;;;;10.83;6.33;;;;;;;;;;494106;240;27475;-69
2021/07/19 07:18:47;;;;;;;6.70;6.10;;;;;;;;;;496623;239;27491;-71
2021/07/19 07:20:49;;;;;;;8.13;6.17;;;;;;;;;;496574;239;27407;-69
2021/07/19 07:22:52;;;;;;;7.40;6.00;;;;;;;;;;496602;239;27483;-71
2021/07/19 07:24:53;;;;;;;6.70;6.00;;;;;;;;;;486133;239;27526;-69
2021/07/19 07:26:55;;;;;;;9.67;6.20;;;;;;;;;;471172;252;27394;-69
2021/07/19 07:28:58;;;;;;;6.57;5.87;;;;;;;;;;486941;244;27552;-71
2021/07/19 07:31:00;;;;;;;7.60;5.93;;;;;;;;;;486953;244;27514;-71
2021/07/19 07:33:03;;;;;;;7.20;6.10;;;;;;;;;;486936;244;27534;-72
2021/07/19 07:35:04;;;;;;;6.63;6.03;;;;;;;;;;486939;244;27582;-70
2021/07/19 07:37:06;;;;;;;8.57;6.53;;;;;;;;;;486957;244;27519;-72
2021/07/19 07:39:08;;;;;;;6.07;5.47;;;;;;;;;;486952;244;27491;-72
2021/07/19 07:41:10;;;;;;;6.30;5.70;;;;;;;;;;486936;244;27609;-70
2021/07/19 07:43:12;;;;;;;6.73;6.13;;;;;;;;;;486939;244;27496;-72
2021/07/19 07:45:15;;;;;;;7.50;6.27;;;;;;;;;;476682;236;27602;-71
2021/07/19 07:47:17;;;;;;;7.33;6.23;;;;;;;;;;476448;249;27501;-71
2021/07/19 07:49:21;;;;;;;6.20;5.70;;;;;;;;;;476456;249;27400;-72
2021/07/19 07:51:21;;;;;;;9.53;6.17;;;;;;;;;;476467;249;27494;-70
2021/07/19 07:53:23;;;;;;;7.50;5.70;;;;;;;;;;476456;249;27500;-71
2021/07/19 07:55:25;;;;;;;7.40;6.27;;;;;;;;;;476467;249;27389;-72
2021/07/19 07:57:27;;;;;;;6.07;5.57;;;;;;;;;;476473;249;27484;-71
2021/07/19 07:59:29;;;;;;;6.67;6.07;;;;;;;;;;476475;249;27397;-72
2021/07/19 08:01:31;;;;;;;10.93;6.10;;;;;;;;;;476463;249;27402;-71
2021/07/19 08:03:34;;;;;;;9.90;6.57;;;;;;;;;;476441;249;27435;-71
2021/07/19 08:05:36;;;;;;;6.10;5.43;;;;;;;;;;476459;249;27428;-71
2021/07/19 08:07:38;;;;;;;7.23;6.33;;;;;;;;;;476458;249;27532;-71
2021/07/19 08:09:40;;;;;;;7.57;6.23;;;;;;;;;;476480;249;27433;-70
2021/07/19 08:11:42;;;;;;;12.10;5.77;;;;;;;;;;476465;249;27509;-71
2021/07/19 08:13:44;;;;;;;6.20;5.70;;;;;;;;;;476465;249;27460;-71
2021/07/19 08:15:47;;;;;;;6.97;5.60;;;;;;;;;;480052;240;27536;-71
2021/07/19 08:17:48;;;;;;;5.83;5.30;;;;;;;;;;480449;247;27551;-71
2021/07/19 08:19:50;;;;;;;5.43;4.80;;;;;;;;;;480460;247;27676;-71
2021/07/19 08:21:56;;;;;;;5.60;5.10;;;;;;;;;;480453;247;27614;-69
2021/07/19 08:23:55;;;;;;;6.00;5.40;;;;;;;;;;480416;247;27529;-71
2021/07/19 08:25:57;;;;;;;5.63;5.03;;;;;;;;;;480437;247;27666;-72
2021/07/19 08:27:59;;;;;;;5.83;4.70;;;;;;;;;;480131;247;27527;-71
2021/07/19 08:30:01;;;;;;;8.77;5.40;;;;;;;;;;480432;247;27528;-71
2021/07/19 08:32:03;;;;;;;5.10;4.60;;;;;;;;;;480429;247;27536;-71
2021/07/19 08:34:05;;;;;;;6.20;5.60;;;;;;;;;;480415;247;27670;-71
2021/07/19 08:36:08;;;;;;;6.13;4.90;;;;;;;;;;480436;247;27618;-72
2021/07/19 08:38:10;;;;;;;7.57;4.37;;;;;;;;;;480440;247;27510;-71
2021/07/19 08:40:12;;;;;;;4.80;4.40;;;;;;;;;;480423;247;27570;-71
2021/07/19 08:42:14;;;;;;;5.60;5.03;;;;;;;;;;480447;247;27507;-72
2021/07/19 08:44:16;;;;;;;5.30;4.53;;;;;;;;;;480453;247;27524;-72
2021/07/19 08:46:18;;;;;;;4.77;4.27;;;;;;;;;;480455;247;27515;-71
2021/07/19 08:48:20;;;;;;;5.63;5.10;;;;;;;;;;480439;247;27555;-71
2021/07/19 08:50:22;;;;;;;5.93;4.70;;;;;;;;;;480441;247;27498;-71
2021/07/19 08:52:24;;;;;;;5.00;4.50;;;;;;;;;;480438;247;27982;-71
2021/07/19 08:54:27;;;;;;;4.90;4.50;;;;;;;;;;480423;247;27500;-71
2021/07/19 08:56:29;;;;;;;5.27;4.57;;;;;;;;;;480439;247;27972;-71
2021/07/19 08:58:31;;;;;;;5.17;4.50;;;;;;;;;;480452;247;27580;-70
2021/07/19 09:00:33;;;;;;;5.10;4.03;;;;;;;;;;480437;247;27966;-69
2021/07/19 09:02:35;;;;;;;4.43;4.10;;;;;;;;;;480419;247;27482;-70
2021/07/19 09:04:37;;;;;;;4.50;4.10;;;;;;;;;;480423;247;27944;-70
2021/07/19 09:06:39;;;;;;;4.40;4.10;;;;;;;;;;480331;247;27525;-71
2021/07/19 09:08:41;;;;;;;5.70;4.50;;;;;;;;;;480427;247;28195;-71
2021/07/19 09:10:43;;;;;;;4.30;3.90;;;;;;;;;;480418;247;27665;-71
2021/07/19 09:12:47;;;;;;;5.03;4.13;;;;;;;;;;480429;242;28050;-71
2021/07/19 09:14:48;;;;;;;5.00;4.17;;;;;;;;;;480382;247;27560;-71
2021/07/19 09:16:50;;;;;;;4.83;4.43;;;;;;;;;;480441;242;28017;-70
2021/07/19 09:18:52;;;;;;;7.63;4.27;;;;;;;;;;480455;247;27613;-72
2021/07/19 09:20:54;;;;;;;6.20;4.17;;;;;;;;;;480458;247;28008;-72
2021/07/19 09:22:56;;;;;;;4.13;3.73;;;;;;;;;;480453;247;27609;-70
2021/07/19 09:24:58;;;;;;;6.63;3.87;;;;;;;;;;480455;247;28020;-70
2021/07/19 09:27:00;;;;;;;4.37;3.97;;;;;;;;;;480425;247;27615;-71
2021/07/19 09:29:02;;;;;;;5.30;3.90;;;;;;;;;;480420;247;28091;-72
2021/07/19 09:31:04;;;;;;;4.30;3.90;;;;;;;;;;480418;247;27564;-72
2021/07/19 09:33:07;;;;;;;4.10;3.70;;;;;;;;;;480437;247;27988;-71
2021/07/19 09:35:09;;;;;;;3.90;3.60;;;;;;;;;;480435;247;27624;-71
2021/07/19 09:37:11;;;;;;;4.33;3.60;;;;;;;;;;480436;247;28005;-71
2021/07/19 09:39:13;;;;;;;5.70;4.10;;;;;;;;;;480422;247;27518;-71
2021/07/19 09:41:15;;;;;;;3.77;3.43;;;;;;;;;;480432;247;28091;-71
2021/07/19 09:43:17;;;;;;;6.20;4.07;;;;;;;;;;480458;247;27512;-71
2021/07/19 09:45:19;;;;;;;4.70;3.77;;;;;;;;;;480476;247;28042;-71
2021/07/19 09:47:21;;;;;;;4.87;3.30;;;;;;;;;;480477;247;27571;-71
2021/07/19 09:49:23;;;;;;;4.00;3.60;;;;;;;;;;480480;247;28060;-71
2021/07/19 09:51:26;;;;;;;2.83;2.63;;;;;;;;;;480374;247;27511;-72
2021/07/19 09:53:28;;;;;;;3.60;3.30;;;;;;;;;;480361;247;28061;-72
2021/07/19 09:55:30;;;;;;;4.40;3.10;;;;;;;;;;480442;247;27594;-71
2021/07/19 09:57:32;;;;;;;5.10;3.47;;;;;;;;;;480466;247;27978;-71
2021/07/19 09:59:34;;;;;;;4.37;3.20;;;;;;;;;;480454;247;27508;-71
2021/07/19 10:01:36;;;;;;;3.70;3.40;;;;;;;;;;480460;247;27959;-71
2021/07/19 10:03:38;;;;;;;12.60;3.27;;;;;;;;;;480456;247;27559;-71
2021/07/19 10:05:40;;;;;;;4.30;3.23;;;;;;;;;;480433;247;28089;-71
2021/07/19 10:07:42;;;;;;;5.40;3.63;;;;;;;;;;480407;247;27502;-71
2021/07/19 10:09:45;;;;;;;5.13;3.17;;;;;;;;;;480421;247;28715;-71
2021/07/19 10:11:47;;;;;;;3.73;3.43;;;;;;;;;;480433;247;27647;-71
2021/07/19 10:13:49;;;;;;;6.00;3.20;;;;;;;;;;480432;247;27529;-71
2021/07/19 10:15:52;;;;;;;3.37;3.07;;;;;;;;;;480433;247;27554;-71
2021/07/19 10:17:53;;;;;;;4.40;3.57;;;;;;;;;;480421;247;27576;-71
2021/07/19 10:19:56;;;;;;;4.43;3.57;;;;;;;;;;480433;247;27547;-71
2021/07/19 10:21:57;;;;;;;6.93;3.33;;;;;;;;;;480429;245;27638;-71
2021/07/19 10:23:59;;;;;;;3.67;3.30;;;;;;;;;;480427;247;27633;-71
2021/07/19 10:26:02;;;;;;;6.13;3.77;;;;;;;;;;480425;247;28093;-71
2021/07/19 10:28:04;;;;;;;5.70;3.40;;;;;;;;;;480421;247;27535;-71
2021/07/19 10:30:07;;;;;;;5.77;3.80;;;;;;;;;;480420;247;27562;-71
2021/07/19 10:32:08;;;;;;;5.47;3.57;;;;;;;;;;480419;247;27548;-71
2021/07/19 10:34:10;;;;;;;3.87;3.57;;;;;;;;;;480290;247;28030;-71
2021/07/19 10:36:12;;;;;;;3.43;3.13;;;;;;;;;;480404;247;27574;-72
2021/07/19 10:38:14;;;;;;;4.20;3.80;;;;;;;;;;480433;247;27968;-71
2021/07/19 10:40:16;;;;;;;3.83;3.53;;;;;;;;;;480435;247;27559;-71
2021/07/19 10:42:18;;;;;;;3.33;3.03;;;;;;;;;;480394;247;28024;-71
2021/07/19 10:44:21;;;;;;;3.20;2.90;;;;;;;;;;480426;247;27536;-71
2021/07/19 10:46:23;;;;;;;5.13;3.40;;;;;;;;;;480429;247;27953;-71
2021/07/19 10:48:25;;;;;;;4.10;3.80;;;;;;;;;;480432;247;27512;-71
2021/07/19 10:50:27;;;;;;;5.30;3.60;;;;;;;;;;480434;247;27963;-72
2021/07/19 10:52:29;;;;;;;4.47;3.77;;;;;;;;;;480421;247;27534;-71
2021/07/19 10:54:31;;;;;;;4.00;3.50;;;;;;;;;;480435;247;28015;-71
2021/07/19 10:56:33;;;;;;;4.30;3.80;;;;;;;;;;480432;247;27499;-72
2021/07/19 10:58:35;;;;;;;3.73;3.43;;;;;;;;;;480427;247;28057;-71
2021/07/19 11:00:37;;;;;;;5.33;3.73;;;;;;;;;;480435;247;27517;-70
2021/07/19 11:02:40;;;;;;;3.43;2.80;;;;;;;;;;480434;247;27962;-71
2021/07/19 11:04:42;;;;;;;7.60;3.33;;;;;;;;;;480428;247;27485;-71
2021/07/19 11:06:56;;;;;;;4.60;3.10;;;;;;;;;;480425;247;28808;-71
2021/07/19 11:08:52;;;;;;;3.40;3.10;;;;;;;;;;480362;247;27518;-71
2021/07/19 11:10:54;;;;;;;4.20;3.17;;;;;;;;;;480431;247;28763;-71
2021/07/19 11:12:59;;;;;;;6.20;3.20;;;;;;;;;;480417;247;27626;-71
2021/07/19 11:15:01;;;;;;;3.83;3.53;;;;;;;;;;480426;247;28047;-71
2021/07/19 11:17:03;;;;;;;4.00;3.60;;;;;;;;;;480428;247;27603;-71
2021/07/19 11:19:05;;;;;;;5.50;3.73;;;;;;;;;;480453;247;28048;-71
2021/07/19 11:21:07;;;;;;;3.93;3.53;;;;;;;;;;480412;247;27509;-71
2021/07/19 11:23:09;;;;;;;5.57;3.50;;;;;;;;;;480435;247;27965;-71
2021/07/19 11:25:11;;;;;;;5.53;3.67;;;;;;;;;;480437;247;27529;-71
2021/07/19 11:27:17;;;;;;;3.60;3.20;;;;;;;;;;480378;247;28076;-71
2021/07/19 11:29:16;;;;;;;3.10;2.87;;;;;;;;;;480379;247;27511;-71
2021/07/19 11:31:18;;;;;;;4.37;3.30;;;;;;;;;;480429;247;27978;-71
2021/07/19 11:33:21;;;;;;;23.13;3.83;;;;;;;;;;480335;247;27504;-71
2021/07/19 11:35:22;;;;;;;3.50;3.20;;;;;;;;;;488088;236;27882;-71
2021/07/19 11:37:24;;;;;;;4.27;3.17;;;;;;;;;;492130;240;27368;-71
2021/07/19 11:39:26;;;;;;;3.47;3.17;;;;;;;;;;492135;240;27988;-71
2021/07/19 11:41:28;;;;;;;3.60;3.23;;;;;;;;;;492139;240;27362;-71
2021/07/19 11:43:30;;;;;;;5.70;3.73;;;;;;;;;;492114;240;27905;-71
2021/07/19 11:45:33;;;;;;;4.37;3.97;;;;;;;;;;492121;240;27498;-71
2021/07/19 11:47:35;;;;;;;4.03;3.37;;;;;;;;;;492114;240;28059;-71
2021/07/19 11:49:37;;;;;;;3.83;3.53;;;;;;;;;;492133;240;27517;-72
2021/07/19 11:51:39;;;;;;;3.90;3.37;;;;;;;;;;492109;240;28000;-71
2021/07/19 11:53:41;;;;;;;4.27;3.57;;;;;;;;;;492129;240;27505;-71
2021/07/19 11:55:43;;;;;;;5.53;4.27;;;;;;;;;;492108;240;27914;-71
2021/07/19 11:57:45;;;;;;;7.00;3.80;;;;;;;;;;492114;240;27403;-71
2021/07/19 11:59:47;;;;;;;4.03;3.60;;;;;;;;;;492097;240;27996;-71
2021/07/19 12:01:49;;;;;;;4.77;4.07;;;;;;;;;;492123;240;27406;-71
2021/07/19 12:03:52;;;;;;;4.57;3.40;;;;;;;;;;492124;240;27898;-70
2021/07/19 12:05:54;;;;;;;4.00;3.47;;;;;;;;;;492116;240;27524;-70
2021/07/19 12:07:56;;;;;;;4.23;3.83;;;;;;;;;;492103;240;28020;-70
2021/07/19 12:09:58;;;;;;;4.03;3.63;;;;;;;;;;492143;240;27483;-70
2021/07/19 12:12:02;;;;;;;4.30;3.63;;;;;;;;;;492126;240;27478;-70